createdAt,value
2024-01-01T00:00:48.660Z,1.83
2024-01-01T00:03:18.986Z,3.53
2024-01-01T00:05:47.291Z,3.50
2024-01-01T00:08:15.815Z,6.50
2024-01-01T00:10:45.480Z,4.23
2024-01-01T00:13:15.457Z,4.63
2024-01-01T00:15:44.187Z,3.30
2024-01-01T00:18:14.796Z,5.07
2024-01-01T00:20:43.302Z,4.33
2024-01-01T00:23:11.789Z,7.87
2024-01-01T00:25:40.181Z,7.47
2024-01-01T00:28:08.804Z,11.43
2024-01-01T00:30:40.420Z,5.60
2024-01-01T00:33:08.757Z,7.70
2024-01-01T00:35:37.038Z,8.33
2024-01-01T00:38:05.889Z,8.37
2024-01-01T00:40:34.341Z,11.87
2024-01-01T00:43:02.619Z,9.67
2024-01-01T00:45:37.091Z,8.10
2024-01-01T00:48:12.866Z,8.93
2024-01-01T00:50:41.120Z,7.60
2024-01-01T00:53:09.448Z,10.33
2024-01-01T00:55:37.910Z,9.03
2024-01-01T00:58:08.074Z,9.37
2024-01-01T01:00:37.216Z,7.90
2024-01-01T01:03:06.234Z,10.03
2024-01-01T01:05:35.997Z,10.73
2024-01-01T01:08:04.860Z,5.70
2024-01-01T01:10:33.634Z,7.77
2024-01-01T01:13:02.053Z,7.77
2024-01-01T01:15:30.935Z,8.13
2024-01-01T01:17:59.626Z,7.03
2024-01-01T01:20:27.936Z,6.87
2024-01-01T01:22:57.621Z,8.10
2024-01-01T01:25:26.177Z,5.43
2024-01-01T01:27:54.390Z,8.47
2024-01-01T01:30:22.695Z,5.60
2024-01-01T01:32:51.310Z,3.63
2024-01-01T01:35:19.651Z,3.30
2024-01-01T01:37:47.880Z,3.10
2024-01-01T01:40:17.467Z,3.10
2024-01-01T01:42:48.021Z,2.03
2024-01-01T01:45:16.547Z,2.77
2024-01-01T01:47:45.015Z,3.57
2024-01-01T01:50:13.614Z,2.00
2024-01-01T01:52:42.202Z,3.53
2024-01-01T01:55:11.121Z,4.73
2024-01-01T01:57:41.739Z,3.43
2024-01-01T02:00:11.624Z,3.13
2024-01-01T02:02:43.945Z,2.10
2024-01-01T02:05:12.508Z,4.70
2024-01-01T02:07:42.471Z,3.67
2024-01-01T02:10:11.176Z,3.10
2024-01-01T02:12:41.283Z,3.43
2024-01-01T02:15:10.619Z,2.90
2024-01-01T02:17:38.938Z,3.43
2024-01-01T02:20:16.551Z,3.03
2024-01-01T02:22:48.823Z,4.00
2024-01-01T02:25:18.674Z,2.17
2024-01-01T02:27:47.127Z,5.23
2024-01-01T02:30:15.459Z,4.20
2024-01-01T02:32:43.843Z,3.73
2024-01-01T02:35:12.292Z,5.40
2024-01-01T02:37:40.818Z,3.20
2024-01-01T02:40:10.257Z,1.27
2024-01-01T02:42:39.937Z,3.57
2024-01-01T02:45:09.623Z,4.23
2024-01-01T02:47:39.042Z,0.90
2024-01-01T02:50:08.719Z,3.67
2024-01-01T02:52:37.179Z,1.87
2024-01-01T02:55:06.149Z,0.90
2024-01-01T02:57:34.394Z,2.20
2024-01-01T03:00:04.918Z,1.30
2024-01-01T03:02:33.268Z,2.20
2024-01-01T03:05:01.685Z,2.93
2024-01-01T03:07:29.984Z,1.43
2024-01-01T03:09:58.228Z,2.37
2024-01-01T03:12:26.606Z,1.87
2024-01-01T03:14:54.960Z,0.80
2024-01-01T03:17:24.863Z,2.20
2024-01-01T03:19:53.158Z,0.60
2024-01-01T03:22:21.513Z,2.37
2024-01-01T03:24:49.744Z,1.70
2024-01-01T03:27:18.275Z,1.63
2024-01-01T03:29:47.032Z,2.70
2024-01-01T03:32:15.459Z,1.50
2024-01-01T03:34:45.627Z,2.67
2024-01-01T03:37:13.909Z,2.17
2024-01-01T03:39:42.208Z,0.93
2024-01-01T03:42:10.462Z,1.00
2024-01-01T03:44:39.068Z,0.63
2024-01-01T03:47:07.525Z,0.90
2024-01-01T03:49:35.937Z,2.20
2024-01-01T03:52:05.748Z,1.63
2024-01-01T03:54:36.429Z,1.77
2024-01-01T03:57:05.234Z,0.83
2024-01-01T03:59:33.538Z,1.60
2024-01-01T04:02:01.814Z,2.40
2024-01-01T04:04:30.069Z,2.00
2024-01-01T04:06:58.938Z,1.63
2024-01-01T04:09:28.530Z,1.70
2024-01-01T04:11:56.818Z,1.00
2024-01-01T04:14:25.331Z,1.40
2024-01-01T04:16:53.728Z,1.37
2024-01-01T04:19:22.934Z,2.07
2024-01-01T04:21:51.161Z,1.23
2024-01-01T04:24:19.395Z,0.83
2024-01-01T04:26:49.005Z,1.40
2024-01-01T04:29:17.489Z,0.67
2024-01-01T04:31:47.408Z,1.93
2024-01-01T04:34:15.760Z,3.20
2024-01-01T04:36:45.419Z,0.73
2024-01-01T04:39:13.758Z,1.57
2024-01-01T04:41:42.309Z,1.23
2024-01-01T04:44:12.031Z,0.90
2024-01-01T04:46:40.352Z,1.53
2024-01-01T04:49:08.775Z,0.43
2024-01-01T04:51:37.177Z,2.83
2024-01-01T04:54:05.468Z,1.27
2024-01-01T04:56:33.718Z,0.90
2024-01-01T04:59:02.783Z,1.77
2024-01-01T05:01:32.393Z,1.70
2024-01-01T05:04:00.672Z,2.10
2024-01-01T05:06:29.040Z,0.30
2024-01-01T05:08:57.286Z,2.20
2024-01-01T05:11:25.597Z,1.57
2024-01-01T05:13:53.902Z,1.07
2024-01-01T05:16:22.168Z,1.13
2024-01-01T05:18:51.772Z,1.73
2024-01-01T05:21:20.079Z,1.90
2024-01-01T05:23:48.335Z,0.87
2024-01-01T05:26:16.713Z,0.97
2024-01-01T05:28:45.117Z,0.60
2024-01-01T05:31:13.450Z,0.40
2024-01-01T05:33:41.982Z,1.10
2024-01-01T05:36:15.094Z,1.23
2024-01-01T05:38:43.699Z,0.70
2024-01-01T05:41:12.847Z,0.50
2024-01-01T05:43:41.228Z,1.10
2024-01-01T05:46:09.534Z,1.53
2024-01-01T05:48:41.042Z,1.83
2024-01-01T05:51:10.820Z,1.17
2024-01-01T05:53:40.404Z,2.00
2024-01-01T05:56:09.167Z,1.27
2024-01-01T05:58:37.609Z,0.83
2024-01-01T06:01:06.140Z,1.33
2024-01-01T06:03:34.471Z,1.63
2024-01-01T06:06:03.184Z,2.27
2024-01-01T06:08:31.467Z,2.00
2024-01-01T06:11:01.107Z,0.70
2024-01-01T06:13:29.404Z,1.40
2024-01-01T06:15:57.915Z,1.17
2024-01-01T06:18:27.875Z,0.50
2024-01-01T06:20:56.300Z,2.20
2024-01-01T06:23:24.623Z,2.50
2024-01-01T06:25:54.095Z,1.57
2024-01-01T06:28:23.721Z,1.40
2024-01-01T06:30:52.461Z,2.33
2024-01-01T06:33:20.991Z,1.23
2024-01-01T06:35:49.497Z,1.43
2024-01-01T06:38:18.480Z,1.80
2024-01-01T06:40:46.785Z,1.60
2024-01-01T06:43:15.454Z,1.00
2024-01-01T06:45:45.133Z,1.40
2024-01-01T06:48:13.618Z,0.37
2024-01-01T06:50:41.962Z,1.13
2024-01-01T06:53:10.248Z,2.97
2024-01-01T06:55:38.537Z,1.90
2024-01-01T06:58:07.027Z,3.23
2024-01-01T07:00:35.486Z,3.07
2024-01-01T07:03:05.725Z,2.00
2024-01-01T07:05:35.411Z,2.63
2024-01-01T07:08:05.270Z,3.00
2024-01-01T07:10:33.728Z,1.70
2024-01-01T07:13:02.200Z,5.83
2024-01-01T07:15:30.440Z,6.63
2024-01-01T07:18:00.711Z,3.10
2024-01-01T07:20:30.542Z,6.90
2024-01-01T07:22:58.788Z,10.33
2024-01-01T07:25:27.027Z,4.30
2024-01-01T07:27:56.079Z,6.03
2024-01-01T07:30:24.329Z,2.03
2024-01-01T07:32:52.583Z,2.13
2024-01-01T07:35:21.005Z,3.87
2024-01-01T07:37:51.990Z,1.53
2024-01-01T07:40:20.393Z,2.13
2024-01-01T07:42:48.722Z,1.30
2024-01-01T07:45:17.098Z,1.13
2024-01-01T07:47:45.511Z,2.37
2024-01-01T07:50:13.875Z,0.67
2024-01-01T07:52:42.153Z,1.10
2024-01-01T07:55:13.322Z,1.27
2024-01-01T07:57:41.749Z,0.70
2024-01-01T08:00:13.034Z,0.67
2024-01-01T08:02:41.283Z,1.90
2024-01-01T08:05:09.801Z,0.30
2024-01-01T08:07:38.190Z,0.60
2024-01-01T08:10:07.525Z,0.50
2024-01-01T08:12:37.091Z,1.90
2024-01-01T08:15:06.309Z,1.13
2024-01-01T08:17:34.635Z,1.63
2024-01-01T08:20:03.089Z,0.67
2024-01-01T08:22:31.496Z,0.60
2024-01-01T08:24:59.871Z,0.73
2024-01-01T08:27:28.105Z,1.10
2024-01-01T08:29:57.691Z,0.87
2024-01-01T08:32:25.999Z,1.57
2024-01-01T08:34:54.312Z,2.27
2024-01-01T08:37:22.618Z,1.00
2024-01-01T08:39:51.168Z,0.97
2024-01-01T08:42:19.478Z,2.07
2024-01-01T08:44:47.795Z,1.83
2024-01-01T08:47:17.742Z,1.73
2024-01-01T08:49:46.061Z,0.80
2024-01-01T08:52:14.294Z,1.60
2024-01-01T08:54:42.537Z,1.63
2024-01-01T08:57:10.761Z,1.40
2024-01-01T08:59:40.655Z,1.10
2024-01-01T09:02:09.201Z,1.00
2024-01-01T09:04:38.896Z,1.70
2024-01-01T09:07:07.196Z,3.10
2024-01-01T09:09:36.383Z,2.63
2024-01-01T09:12:04.981Z,0.70
2024-01-01T09:14:33.317Z,3.97
2024-01-01T09:17:01.698Z,3.40
2024-01-01T09:19:30.001Z,0.80
2024-01-01T09:21:59.601Z,1.17
2024-01-01T09:24:27.808Z,1.93
2024-01-01T09:26:56.070Z,1.63
2024-01-01T09:29:24.597Z,2.23
2024-01-01T09:31:53.579Z,1.20
2024-01-01T09:34:21.821Z,2.03
2024-01-01T09:36:57.606Z,1.67
2024-01-01T09:39:33.039Z,1.90
2024-01-01T09:42:03.494Z,1.33
2024-01-01T09:44:31.845Z,1.63
2024-01-01T09:47:00.255Z,0.40
2024-01-01T09:49:28.730Z,1.33
2024-01-01T09:51:58.505Z,1.03
2024-01-01T09:54:26.788Z,2.00
2024-01-01T09:56:56.428Z,2.70
2024-01-01T09:59:38.645Z,2.93
2024-01-01T10:02:08.910Z,0.50
2024-01-01T10:04:38.052Z,0.70
2024-01-01T10:07:06.944Z,0.30
2024-01-01T10:09:39.377Z,0.83
2024-01-01T10:12:11.213Z,2.10
2024-01-01T10:14:47.763Z,0.40
2024-01-01T10:17:18.888Z,0.60
2024-01-01T10:19:52.391Z,1.03
2024-01-01T10:22:22.213Z,0.73
2024-01-01T10:24:53.493Z,1.77
2024-01-01T10:27:23.817Z,1.17
2024-01-01T10:29:52.627Z,0.43
2024-01-01T10:32:21.347Z,0.40
2024-01-01T10:34:50.136Z,0.30
2024-01-01T10:37:20.169Z,1.50
2024-01-01T10:39:49.648Z,0.47
2024-01-01T10:42:18.652Z,1.43
2024-01-01T10:44:48.479Z,1.37
2024-01-01T10:47:21.023Z,0.70
2024-01-01T10:49:54.023Z,0.83
2024-01-01T10:52:37.949Z,0.67
2024-01-01T10:55:35.992Z,1.80
2024-01-01T10:58:20.122Z,1.27
2024-01-01T11:01:00.795Z,1.10
2024-01-01T11:03:29.398Z,1.23
2024-01-01T11:05:57.643Z,0.70
2024-01-01T11:08:29.542Z,0.40
2024-01-01T11:10:57.931Z,0.70
2024-01-01T11:13:57.831Z,0.33
2024-01-01T11:16:27.652Z,0.70
2024-01-01T11:18:56.159Z,1.17
2024-01-01T11:21:29.151Z,0.80
2024-01-01T11:24:14.317Z,1.27
2024-01-01T11:26:46.021Z,0.80
2024-01-01T11:29:28.701Z,1.30
2024-01-01T11:32:05.646Z,0.60
2024-01-01T11:34:43.741Z,0.93
2024-01-01T11:37:22.135Z,1.50
2024-01-01T11:39:59.106Z,1.37
2024-01-01T11:42:27.962Z,0.40
2024-01-01T11:45:09.909Z,1.13
2024-01-01T11:47:40.223Z,1.20
2024-01-01T11:50:10.578Z,1.27
2024-01-01T11:52:40.023Z,1.50
2024-01-01T11:55:08.985Z,1.23
2024-01-01T11:57:37.369Z,0.90
2024-01-01T12:00:07.037Z,0.80
2024-01-01T12:02:39.812Z,0.70
2024-01-01T12:05:10.145Z,0.40
2024-01-01T12:07:38.726Z,2.50
2024-01-01T12:10:09.979Z,1.67
2024-01-01T12:12:39.484Z,0.90
2024-01-01T12:15:12.962Z,0.97
2024-01-01T12:17:44.540Z,0.50
2024-01-01T12:20:16.125Z,1.70
2024-01-01T12:22:45.168Z,3.07
2024-01-01T12:25:17.813Z,1.40
2024-01-01T12:28:01.288Z,0.80
2024-01-01T12:30:29.814Z,2.27
2024-01-01T12:33:00.164Z,1.77
2024-01-01T12:35:29.128Z,0.97
2024-01-01T12:37:58.094Z,0.90
2024-01-01T12:40:29.800Z,1.83
2024-01-01T12:42:58.338Z,2.20
2024-01-01T12:45:27.263Z,1.00
2024-01-01T12:47:56.115Z,2.93
2024-01-01T12:50:25.789Z,1.53
2024-01-01T12:52:54.218Z,0.83
2024-01-01T12:55:22.556Z,2.10
2024-01-01T12:57:50.856Z,1.10
2024-01-01T13:00:19.341Z,0.50
2024-01-01T13:02:47.627Z,0.80
2024-01-01T13:05:16.009Z,0.77
2024-01-01T13:07:45.673Z,0.60
2024-01-01T13:10:14.151Z,1.10
2024-01-01T13:12:42.399Z,2.43
2024-01-01T13:15:10.915Z,0.60
2024-01-01T13:17:40.634Z,1.03
2024-01-01T13:20:11.188Z,1.50
2024-01-01T13:22:39.514Z,1.63
2024-01-01T13:25:09.477Z,1.40
2024-01-01T13:27:37.780Z,1.53
2024-01-01T13:30:07.233Z,0.57
2024-01-01T13:32:35.608Z,1.23
2024-01-01T13:35:04.026Z,1.07
2024-01-01T13:37:32.308Z,0.63
2024-01-01T13:40:01.452Z,0.40
2024-01-01T13:42:31.224Z,0.40
2024-01-01T13:44:59.574Z,2.77
2024-01-01T13:47:28.493Z,1.13
2024-01-01T13:49:56.809Z,1.13
2024-01-01T13:52:25.859Z,0.60
2024-01-01T13:54:54.113Z,0.73
2024-01-01T13:57:22.339Z,0.50
2024-01-01T13:59:51.891Z,1.20
2024-01-01T14:02:20.449Z,1.40
2024-01-01T14:04:48.771Z,1.53
2024-01-01T14:07:17.006Z,1.27
2024-01-01T14:09:45.218Z,1.63
2024-01-01T14:12:13.464Z,0.40
2024-01-01T14:14:44.762Z,1.00
2024-01-01T14:17:14.357Z,0.50
2024-01-01T14:19:42.644Z,0.50
2024-01-01T14:22:11.187Z,1.50
2024-01-01T14:24:39.478Z,1.10
2024-01-01T14:27:10.915Z,0.90
2024-01-01T14:29:39.384Z,0.40
2024-01-01T14:32:07.994Z,0.40
2024-01-01T14:34:38.991Z,0.50
2024-01-01T14:37:08.306Z,0.70
2024-01-01T14:39:37.069Z,2.10
2024-01-01T14:42:05.968Z,0.73
2024-01-01T14:44:34.636Z,0.50
2024-01-01T14:47:04.757Z,1.23
2024-01-01T14:49:33.087Z,2.87
2024-01-01T14:52:03.332Z,0.80
2024-01-01T14:54:31.708Z,0.83
2024-01-01T14:56:59.992Z,0.80
2024-01-01T14:59:28.335Z,0.70
2024-01-01T15:01:59.016Z,1.70
2024-01-01T15:04:27.338Z,0.50
2024-01-01T15:06:55.574Z,2.43
2024-01-01T15:09:25.159Z,1.10
2024-01-01T15:11:53.409Z,2.60
2024-01-01T15:14:21.772Z,1.00
2024-01-01T15:16:50.163Z,3.23
2024-01-01T15:19:19.665Z,2.27
2024-01-01T15:21:47.957Z,1.87
2024-01-01T15:24:17.328Z,1.03
2024-01-01T15:26:46.940Z,1.30
2024-01-01T15:29:15.227Z,0.93
2024-01-01T15:31:43.590Z,0.80
2024-01-01T15:34:11.855Z,1.27
2024-01-01T15:36:41.727Z,0.40
2024-01-01T15:39:13.639Z,0.60
2024-01-01T15:41:42.125Z,0.90
2024-01-01T15:44:11.790Z,0.70
2024-01-01T15:46:40.232Z,0.70
2024-01-01T15:49:08.578Z,0.40
2024-01-01T15:51:39.762Z,0.50
2024-01-01T15:54:08.737Z,2.33
2024-01-01T15:56:41.471Z,0.30
2024-01-01T15:59:11.246Z,0.50
2024-01-01T16:01:39.567Z,0.40
2024-01-01T16:04:07.968Z,0.40
2024-01-01T16:06:36.250Z,5.03
2024-01-01T16:09:04.858Z,5.20
2024-01-01T16:11:33.213Z,1.20
2024-01-01T16:14:01.859Z,11.77
2024-01-01T16:16:34.606Z,1.73
2024-01-01T16:19:05.073Z,0.93
2024-01-01T16:21:37.057Z,7.70
2024-01-01T16:24:05.894Z,7.50
2024-01-01T16:26:38.195Z,1.17
2024-01-01T16:29:06.558Z,0.70
2024-01-01T16:31:36.201Z,1.00
2024-01-01T16:34:05.462Z,2.93
2024-01-01T16:36:33.783Z,1.53
2024-01-01T16:39:04.112Z,1.43
2024-01-01T16:41:32.461Z,0.53
2024-01-01T16:44:00.768Z,1.40
2024-01-01T16:46:29.068Z,0.77
2024-01-01T16:48:58.920Z,0.73
2024-01-01T16:51:27.293Z,0.60
2024-01-01T16:53:55.599Z,1.43
2024-01-01T16:56:26.529Z,0.67
2024-01-01T16:58:55.087Z,0.60
2024-01-01T17:01:25.796Z,0.40
2024-01-01T17:03:54.142Z,1.30
2024-01-01T17:06:24.178Z,0.93
2024-01-01T17:08:52.456Z,0.73
2024-01-01T17:11:20.790Z,0.60
2024-01-01T17:13:49.079Z,0.50
2024-01-01T17:16:17.612Z,0.30
2024-01-01T17:18:46.251Z,0.50
2024-01-01T17:21:19.151Z,0.70
2024-01-01T17:23:50.607Z,0.73
2024-01-01T17:26:19.027Z,0.40
2024-01-01T17:28:49.467Z,0.43
2024-01-01T17:31:18.178Z,0.40
2024-01-01T17:33:46.727Z,0.40
2024-01-01T17:36:17.302Z,0.60
2024-01-01T17:38:45.948Z,0.40
2024-01-01T17:41:15.588Z,0.80
2024-01-01T17:43:46.160Z,0.50
2024-01-01T17:46:15.073Z,0.90
2024-01-01T17:48:43.434Z,1.23
2024-01-01T17:51:11.796Z,0.30
2024-01-01T17:53:40.261Z,0.67
2024-01-01T17:56:12.358Z,0.40
2024-01-01T17:58:41.953Z,0.67
2024-01-01T18:01:10.652Z,0.80
2024-01-01T18:03:39.139Z,0.30
2024-01-01T18:06:07.601Z,0.50
2024-01-01T18:08:36.400Z,0.30
2024-01-01T18:11:05.173Z,0.77
2024-01-01T18:13:33.561Z,1.47
2024-01-01T18:16:05.218Z,0.30
2024-01-01T18:18:34.629Z,1.63
2024-01-01T18:21:02.998Z,0.33
2024-01-01T18:23:31.246Z,0.30
2024-01-01T18:25:59.542Z,0.40
2024-01-01T18:28:27.806Z,0.40
2024-01-01T18:30:56.258Z,0.30
2024-01-01T18:33:25.909Z,0.30
2024-01-01T18:36:00.048Z,0.30
2024-01-01T18:38:28.546Z,0.60
2024-01-01T18:40:56.808Z,0.40
2024-01-01T18:43:25.128Z,0.80
2024-01-01T18:45:53.408Z,0.30
2024-01-01T18:48:22.035Z,0.30
2024-01-01T18:50:53.775Z,0.30
2024-01-01T18:53:22.719Z,0.50
2024-01-01T18:55:51.186Z,0.30
2024-01-01T18:58:19.730Z,0.30
2024-01-01T19:00:47.997Z,0.30
2024-01-01T19:03:16.550Z,0.40
2024-01-01T19:05:44.871Z,0.30
2024-01-01T19:08:14.541Z,0.30
2024-01-01T19:10:42.783Z,0.30
2024-01-01T19:13:11.055Z,1.07
2024-01-01T19:15:39.847Z,1.37
2024-01-01T19:18:10.730Z,3.17
2024-01-01T19:20:39.648Z,0.70
2024-01-01T19:23:08.167Z,0.63
2024-01-01T19:25:37.979Z,0.30
2024-01-01T19:28:07.045Z,1.30
2024-01-01T19:30:35.474Z,0.40
2024-01-01T19:33:05.284Z,1.13
2024-01-01T19:35:35.587Z,2.40
2024-01-01T19:38:03.986Z,0.57
2024-01-01T19:40:32.286Z,1.10
2024-01-01T19:43:01.881Z,1.07
2024-01-01T19:45:30.114Z,0.53
2024-01-01T19:47:58.654Z,1.50
2024-01-01T19:50:27.037Z,0.60
2024-01-01T19:52:55.545Z,0.40
2024-01-01T19:55:24.087Z,0.50
2024-01-01T19:57:52.519Z,0.70
2024-01-01T20:00:22.206Z,0.40
2024-01-01T20:02:50.442Z,1.13
2024-01-01T20:05:18.711Z,0.30
2024-01-01T20:07:47.014Z,1.80
2024-01-01T20:10:15.337Z,0.40
2024-01-01T20:12:43.568Z,0.90
2024-01-01T20:15:12.389Z,0.40
2024-01-01T20:17:42.065Z,0.57
2024-01-01T20:20:11.610Z,0.90
2024-01-01T20:22:41.616Z,0.50
2024-01-01T20:25:09.977Z,0.70
2024-01-01T20:27:38.260Z,1.50
2024-01-01T20:30:09.181Z,0.40
2024-01-01T20:32:37.562Z,1.10
2024-01-01T20:35:07.870Z,0.40
2024-01-01T20:37:37.120Z,0.50
2024-01-01T20:40:06.662Z,0.40
2024-01-01T20:42:36.328Z,0.47
2024-01-01T20:45:05.445Z,0.57
2024-01-01T20:47:34.087Z,0.60
2024-01-01T20:50:02.516Z,0.30
2024-01-01T20:52:39.899Z,0.30
2024-01-01T20:55:11.132Z,0.43
2024-01-01T20:57:39.674Z,0.30
2024-01-01T21:00:11.093Z,1.37
2024-01-01T21:02:41.731Z,0.30
2024-01-01T21:05:10.552Z,0.40
2024-01-01T21:07:41.867Z,0.40
2024-01-01T21:10:11.154Z,0.50
2024-01-01T21:12:40.925Z,0.30
2024-01-01T21:15:10.129Z,0.50
2024-01-01T21:17:38.714Z,0.30
2024-01-01T21:20:07.995Z,0.30
2024-01-01T21:22:36.341Z,0.40
2024-01-01T21:25:06.645Z,0.63
2024-01-01T21:27:37.087Z,1.07
2024-01-01T21:30:06.347Z,0.50
2024-01-01T21:32:34.863Z,0.30
2024-01-01T21:35:04.439Z,0.40
2024-01-01T21:37:32.803Z,0.30
2024-01-01T21:40:01.131Z,0.40
2024-01-01T21:42:30.798Z,0.30
2024-01-01T21:44:59.069Z,0.73
2024-01-01T21:47:27.445Z,0.40
2024-01-01T21:49:55.820Z,0.30
2024-01-01T21:52:24.081Z,0.30
2024-01-01T21:54:54.582Z,0.50
2024-01-01T21:57:22.876Z,0.30
2024-01-01T21:59:52.528Z,1.07
2024-01-01T22:02:21.008Z,0.30
2024-01-01T22:04:49.547Z,0.40
2024-01-01T22:07:17.971Z,0.50
2024-01-01T22:09:46.274Z,0.30
2024-01-01T22:12:15.087Z,0.30
2024-01-01T22:14:44.070Z,0.30
2024-01-01T22:17:13.672Z,0.30
2024-01-01T22:19:42.827Z,0.30
2024-01-01T22:22:11.089Z,0.40
2024-01-01T22:24:39.403Z,1.23
2024-01-01T22:27:07.645Z,0.40
2024-01-01T22:29:36.778Z,0.60
2024-01-01T22:32:05.715Z,0.30
2024-01-01T22:34:36.099Z,0.30
2024-01-01T22:37:04.872Z,0.30
2024-01-01T22:39:33.125Z,0.60
2024-01-01T22:42:01.419Z,0.60
2024-01-01T22:44:30.028Z,1.70
2024-01-01T22:46:58.360Z,1.80
2024-01-01T22:49:26.779Z,0.30
2024-01-01T22:51:56.596Z,0.57
2024-01-01T22:54:24.845Z,0.73
2024-01-01T22:56:53.221Z,0.30
2024-01-01T22:59:21.574Z,1.00
2024-01-01T23:01:50.033Z,0.30
2024-01-01T23:04:18.554Z,0.50
2024-01-01T23:06:46.799Z,0.40
2024-01-01T23:09:16.426Z,0.30
2024-01-01T23:11:45.086Z,0.30
2024-01-01T23:14:14.794Z,0.80
2024-01-01T23:16:43.101Z,0.40
2024-01-01T23:19:11.364Z,0.30
2024-01-01T23:21:44.121Z,0.30
2024-01-01T23:24:12.466Z,0.30
2024-01-01T23:26:43.728Z,0.43
2024-01-01T23:29:15.333Z,0.30
2024-01-01T23:31:43.800Z,0.60
2024-01-01T23:34:15.071Z,0.50
2024-01-01T23:36:44.331Z,0.33
2024-01-01T23:39:12.702Z,0.30
2024-01-01T23:41:42.278Z,0.30
2024-01-01T23:44:10.555Z,0.30
2024-01-01T23:46:38.783Z,0.30
2024-01-01T23:49:07.102Z,0.70
2024-01-01T23:51:35.376Z,0.30
2024-01-01T23:54:03.719Z,0.30
2024-01-01T23:56:32.047Z,0.40
2024-01-01T23:59:01.756Z,0.87
